EDDMLIPA

Guest
Details From EDDM - Muenchen Franz-Josef Strauss
To LIPA - AVIANO AB
Flight Number -
Tags generated
Created
Modified
Stats Distance 143 nm / 266 km
Max Altitude 15,300 ft / 4,663 m
Waypoints 3
Social Downloads 2
Likes 0
Share VATSIM

Download

Looking for another format? Having issues loading an existing format? Contact us
Advertisement - Login to hide

Notes

Basic altitude profile: - Ascent Rate: 2500ft/min - Ascent Speed: 250kts - Cruise Altitude: 35000ft - Cruise Speed: 420kts - Descent Rate: 1500ft/min - Descent Speed: 250kts Options: - Use NATs: yes - Use PACOTS: yes - Use low airways: yes - Use high airways: yes

Route

EDDM RTT12 LIPA

ID Type Via Altitude Latitude Longitude Leg Dist Tot Dist Heading (true) Name
O EDDM APT - 0 ft / 0 m 48.35379˚ 11.78612˚ - 0 nm - Muenchen Franz-Josef Strauss
RTT12 FIX - 15,300 ft / 4,663 m 47.61083˚ 12.04750˚ 45 nm 45 nm 167° / 167° -
O LIPA APT - 0 ft / 0 m 46.03111˚ 12.59639˚ 97 nm 143 nm 166° / 167° AVIANO AB

Altitude Profile

Advertisement - Login to hide

EDDM

Details ICAO EDDM (MUC)
Name Muenchen Franz-Josef Strauss
Region Germany - Civil
Timezone Europe/Berlin (UTC+1.0)
Stats Elevation 1,487 ft / 453 m (AMSL)
Location 48.353786° 11.786117°
Runways 2
Magnetic Variation 3.160° E

METAR

EDDM 111120Z 10004KT 080V150 CAVOK 04/M00 Q0983 R88/290095 NOSIG

Decode

TAF

TAF EDDM 110500Z 1106/1212 12006KT 9999 SCT040 PROB30 TEMPO 1110/1116 12011KT BECMG 1116/1118 24007KT PROB30 TEMPO 1122/1204 25015G30KT RA BKN012

Decode

Departure Runways

ID Width Length Bearing (true) Bearing (mag) Surface Threshold Offset Overrun Length
08L 197 ft / 60 m 13,086 ft / 3,989 m 83.38° 80.22° Concrete 0 ft / 0 m 0 ft / 0 m
08R 197 ft / 60 m 13,086 ft / 3,989 m 83.37° 80.21° Concrete 0 ft / 0 m 0 ft / 0 m
26L 197 ft / 60 m 13,086 ft / 3,989 m 263.41° 260.25° Concrete 0 ft / 0 m 0 ft / 0 m
26R 197 ft / 60 m 13,086 ft / 3,989 m 263.42° 260.26° Concrete 0 ft / 0 m 0 ft / 0 m

LIPA

Details ICAO LIPA (AVB)
Name AVIANO AB
Region Italy
Timezone Europe/Rome (UTC+1.0)
Stats Elevation 410 ft / 125 m (AMSL)
Location 46.031111° 12.596389°
Runways 1
Magnetic Variation 3.254° E

METAR

LIPA 111055Z 05003KT 5000 2400N RA BR FEW020 SCT030 BKN035 07/06 Q1000 RMK OVC VIS MIN 2400N WIND THR05 /////KT WIND THR23 /////KT A2955 YLO

Decode

TAF

Not found

Destination Runways

ID Width Length Bearing (true) Bearing (mag) Surface Threshold Offset Overrun Length
05 144 ft / 44 m 8,505 ft / 2,592 m 48.12° 44.87° Asphalt 0 ft / 0 m 845 ft / 258 m
23 144 ft / 44 m 8,505 ft / 2,592 m 228.14° 224.89° Asphalt 0 ft / 0 m 919 ft / 280 m

Approach Navaids

Runway Type Ident Frequency Range Bearing (true) Bearing (mag) Slope Elevation
05 Localiser IAVI 109.50 MHz 18 nm / 33 km 48.12° 44.87° - 410 ft / 125 m (AMSL)

Popular Alternatives